sensor_id;sensor_type;location;lat;lon;timestamp;temperature;humidity
7016;DHT22;3548;48.402;9.990;2022-08-25T00:00:42;18.40;99.90
7016;DHT22;3548;48.402;9.990;2022-08-25T00:03:09;18.40;99.90
7016;DHT22;3548;48.402;9.990;2022-08-25T00:05:34;18.40;99.90
7016;DHT22;3548;48.402;9.990;2022-08-25T00:08:01;18.40;99.90
7016;DHT22;3548;48.402;9.990;2022-08-25T00:10:28;18.40;99.90
7016;DHT22;3548;48.402;9.990;2022-08-25T00:12:53;18.30;99.90
7016;DHT22;3548;48.402;9.990;2022-08-25T00:15:19;18.30;99.90
7016;DHT22;3548;48.402;9.990;2022-08-25T00:17:46;18.30;99.90
7016;DHT22;3548;48.402;9.990;2022-08-25T00:20:12;18.30;99.90
7016;DHT22;3548;48.402;9.990;2022-08-25T00:22:37;18.30;99.90
7016;DHT22;3548;48.402;9.990;2022-08-25T00:25:04;18.30;99.90
7016;DHT22;3548;48.402;9.990;2022-08-25T00:27:29;18.20;99.90
7016;DHT22;3548;48.402;9.990;2022-08-25T00:29:55;18.20;99.90
7016;DHT22;3548;48.402;9.990;2022-08-25T00:32:20;18.10;99.90
7016;DHT22;3548;48.402;9.990;2022-08-25T00:34:46;18.10;99.90
7016;DHT22;3548;48.402;9.990;2022-08-25T00:37:11;18.10;99.90
7016;DHT22;3548;48.402;9.990;2022-08-25T00:39:38;18.10;99.90
7016;DHT22;3548;48.402;9.990;2022-08-25T00:42:05;18.00;99.90
7016;DHT22;3548;48.402;9.990;2022-08-25T00:44:32;18.00;99.90
7016;DHT22;3548;48.402;9.990;2022-08-25T00:47:00;17.90;99.90
7016;DHT22;3548;48.402;9.990;2022-08-25T00:49:36;17.90;99.90
7016;DHT22;3548;48.402;9.990;2022-08-25T00:52:08;17.80;99.90
7016;DHT22;3548;48.402;9.990;2022-08-25T00:55:03;17.90;99.90
7016;DHT22;3548;48.402;9.990;2022-08-25T00:57:39;17.80;99.90
7016;DHT22;3548;48.402;9.990;2022-08-25T01:00:16;17.80;99.90
7016;DHT22;3548;48.402;9.990;2022-08-25T01:02:44;17.70;99.90
7016;DHT22;3548;48.402;9.990;2022-08-25T01:05:10;17.70;99.90
7016;DHT22;3548;48.402;9.990;2022-08-25T01:07:37;17.70;99.90
7016;DHT22;3548;48.402;9.990;2022-08-25T01:10:04;17.70;99.90
7016;DHT22;3548;48.402;9.990;2022-08-25T01:12:32;17.70;99.90
7016;DHT22;3548;48.402;9.990;2022-08-25T01:14:59;17.60;99.90
7016;DHT22;3548;48.402;9.990;2022-08-25T01:17:33;17.60;99.90
7016;DHT22;3548;48.402;9.990;2022-08-25T01:19:59;17.50;99.90
7016;DHT22;3548;48.402;9.990;2022-08-25T01:22:24;17.50;99.90
7016;DHT22;3548;48.402;9.990;2022-08-25T01:24:59;17.50;99.90
7016;DHT22;3548;48.402;9.990;2022-08-25T01:27:26;17.50;99.90
7016;DHT22;3548;48.402;9.990;2022-08-25T01:29:52;17.50;99.90
7016;DHT22;3548;48.402;9.990;2022-08-25T01:32:18;17.60;99.90
7016;DHT22;3548;48.402;9.990;2022-08-25T01:34:44;17.50;99.90
7016;DHT22;3548;48.402;9.990;2022-08-25T01:37:12;17.60;99.90
7016;DHT22;3548;48.402;9.990;2022-08-25T01:39:39;17.60;99.90
7016;DHT22;3548;48.402;9.990;2022-08-25T01:42:23;17.60;99.90
7016;DHT22;3548;48.402;9.990;2022-08-25T01:44:52;17.60;99.90
7016;DHT22;3548;48.402;9.990;2022-08-25T01:47:18;17.60;99.90
7016;DHT22;3548;48.402;9.990;2022-08-25T01:49:43;17.60;99.90
7016;DHT22;3548;48.402;9.990;2022-08-25T01:52:18;17.60;99.90
7016;DHT22;3548;48.402;9.990;2022-08-25T01:54:44;17.60;99.90
7016;DHT22;3548;48.402;9.990;2022-08-25T01:57:10;17.60;99.90
7016;DHT22;3548;48.402;9.990;2022-08-25T01:59:36;17.60;99.90
7016;DHT22;3548;48.402;9.990;2022-08-25T02:02:02;17.60;99.90
7016;DHT22;3548;48.402;9.990;2022-08-25T02:04:28;17.50;99.90
7016;DHT22;3548;48.402;9.990;2022-08-25T02:06:57;17.50;99.90
7016;DHT22;3548;48.402;9.990;2022-08-25T02:09:23;17.50;99.90
7016;DHT22;3548;48.402;9.990;2022-08-25T02:11:49;17.50;99.90
7016;DHT22;3548;48.402;9.990;2022-08-25T02:14:15;17.40;99.90
7016;DHT22;3548;48.402;9.990;2022-08-25T02:16:46;17.40;99.90
7016;DHT22;3548;48.402;9.990;2022-08-25T02:19:12;17.40;99.90
7016;DHT22;3548;48.402;9.990;2022-08-25T02:21:38;17.40;99.90
7016;DHT22;3548;48.402;9.990;2022-08-25T02:24:05;17.40;99.90
7016;DHT22;3548;48.402;9.990;2022-08-25T02:26:32;17.40;99.90
7016;DHT22;3548;48.402;9.990;2022-08-25T02:28:58;17.40;99.90
7016;DHT22;3548;48.402;9.990;2022-08-25T02:31:24;17.40;99.90
7016;DHT22;3548;48.402;9.990;2022-08-25T02:33:50;17.40;99.90
7016;DHT22;3548;48.402;9.990;2022-08-25T02:36:17;17.30;99.90
7016;DHT22;3548;48.402;9.990;2022-08-25T02:38:44;17.40;99.90
7016;DHT22;3548;48.402;9.990;2022-08-25T02:41:12;17.40;99.90
7016;DHT22;3548;48.402;9.990;2022-08-25T02:43:40;17.40;99.90
7016;DHT22;3548;48.402;9.990;2022-08-25T02:46:06;17.40;99.90
7016;DHT22;3548;48.402;9.990;2022-08-25T02:48:31;17.40;99.90
7016;DHT22;3548;48.402;9.990;2022-08-25T02:50:59;17.30;99.90
7016;DHT22;3548;48.402;9.990;2022-08-25T02:53:26;17.40;99.90
7016;DHT22;3548;48.402;9.990;2022-08-25T02:55:52;17.30;99.90
7016;DHT22;3548;48.402;9.990;2022-08-25T02:58:17;17.30;99.90
7016;DHT22;3548;48.402;9.990;2022-08-25T03:00:44;17.30;99.90
7016;DHT22;3548;48.402;9.990;2022-08-25T03:03:10;17.20;99.90
7016;DHT22;3548;48.402;9.990;2022-08-25T03:05:36;17.20;99.90
7016;DHT22;3548;48.402;9.990;2022-08-25T03:08:02;17.20;99.90
7016;DHT22;3548;48.402;9.990;2022-08-25T03:10:28;17.10;99.90
7016;DHT22;3548;48.402;9.990;2022-08-25T03:12:54;17.10;99.90
7016;DHT22;3548;48.402;9.990;2022-08-25T03:15:20;17.10;99.90
7016;DHT22;3548;48.402;9.990;2022-08-25T03:17:46;17.10;99.90
7016;DHT22;3548;48.402;9.990;2022-08-25T03:20:14;17.10;99.90
7016;DHT22;3548;48.402;9.990;2022-08-25T03:22:40;17.10;99.90
7016;DHT22;3548;48.402;9.990;2022-08-25T03:25:06;17.10;99.90
7016;DHT22;3548;48.402;9.990;2022-08-25T03:27:50;17.10;99.90
7016;DHT22;3548;48.402;9.990;2022-08-25T03:30:16;17.10;99.90
7016;DHT22;3548;48.402;9.990;2022-08-25T03:32:42;17.10;99.90
7016;DHT22;3548;48.402;9.990;2022-08-25T03:35:08;17.10;99.90
7016;DHT22;3548;48.402;9.990;2022-08-25T03:37:34;17.10;99.90
7016;DHT22;3548;48.402;9.990;2022-08-25T03:40:05;16.90;99.90
7016;DHT22;3548;48.402;9.990;2022-08-25T03:42:32;16.90;99.90
7016;DHT22;3548;48.402;9.990;2022-08-25T03:44:57;16.90;99.90
7016;DHT22;3548;48.402;9.990;2022-08-25T03:47:23;16.80;99.90
7016;DHT22;3548;48.402;9.990;2022-08-25T03:49:51;16.80;99.90
7016;DHT22;3548;48.402;9.990;2022-08-25T03:52:16;16.80;99.90
7016;DHT22;3548;48.402;9.990;2022-08-25T03:54:42;16.80;99.90
7016;DHT22;3548;48.402;9.990;2022-08-25T03:57:09;16.80;99.90
7016;DHT22;3548;48.402;9.990;2022-08-25T03:59:34;16.70;99.90
7016;DHT22;3548;48.402;9.990;2022-08-25T04:02:03;16.70;99.90
7016;DHT22;3548;48.402;9.990;2022-08-25T04:04:29;16.70;99.90
7016;DHT22;3548;48.402;9.990;2022-08-25T04:06:55;16.70;99.90
7016;DHT22;3548;48.402;9.990;2022-08-25T04:09:21;16.70;99.90
7016;DHT22;3548;48.402;9.990;2022-08-25T04:11:46;16.70;99.90
7016;DHT22;3548;48.402;9.990;2022-08-25T04:14:12;16.70;99.90
7016;DHT22;3548;48.402;9.990;2022-08-25T04:16:38;16.60;99.90
7016;DHT22;3548;48.402;9.990;2022-08-25T04:19:06;16.60;99.90
7016;DHT22;3548;48.402;9.990;2022-08-25T04:21:34;16.70;99.90
7016;DHT22;3548;48.402;9.990;2022-08-25T04:24:01;16.60;99.90
7016;DHT22;3548;48.402;9.990;2022-08-25T04:26:38;16.60;99.90
7016;DHT22;3548;48.402;9.990;2022-08-25T04:29:06;16.60;99.90
7016;DHT22;3548;48.402;9.990;2022-08-25T04:31:33;16.60;99.90
7016;DHT22;3548;48.402;9.990;2022-08-25T04:34:02;16.60;99.90
7016;DHT22;3548;48.402;9.990;2022-08-25T04:36:27;16.60;99.90
7016;DHT22;3548;48.402;9.990;2022-08-25T04:38:53;16.60;99.90
7016;DHT22;3548;48.402;9.990;2022-08-25T04:41:21;16.50;99.90
7016;DHT22;3548;48.402;9.990;2022-08-25T04:43:47;16.60;99.90
7016;DHT22;3548;48.402;9.990;2022-08-25T04:46:22;16.60;99.90
7016;DHT22;3548;48.402;9.990;2022-08-25T04:48:49;16.60;99.90
7016;DHT22;3548;48.402;9.990;2022-08-25T04:51:18;16.70;99.90
7016;DHT22;3548;48.402;9.990;2022-08-25T04:53:44;16.70;99.90
7016;DHT22;3548;48.402;9.990;2022-08-25T04:56:16;16.70;99.90
7016;DHT22;3548;48.402;9.990;2022-08-25T04:58:42;16.80;99.90
7016;DHT22;3548;48.402;9.990;2022-08-25T05:01:10;16.90;99.90
7016;DHT22;3548;48.402;9.990;2022-08-25T05:03:36;16.90;99.90
7016;DHT22;3548;48.402;9.990;2022-08-25T05:06:03;16.90;99.90
7016;DHT22;3548;48.402;9.990;2022-08-25T05:08:30;16.90;99.90
7016;DHT22;3548;48.402;9.990;2022-08-25T05:10:55;16.90;99.90
7016;DHT22;3548;48.402;9.990;2022-08-25T05:13:22;16.90;99.90
7016;DHT22;3548;48.402;9.990;2022-08-25T05:15:53;16.90;99.90
7016;DHT22;3548;48.402;9.990;2022-08-25T05:18:20;17.00;99.90
7016;DHT22;3548;48.402;9.990;2022-08-25T05:20:46;17.00;99.90
7016;DHT22;3548;48.402;9.990;2022-08-25T05:23:11;17.10;99.90
7016;DHT22;3548;48.402;9.990;2022-08-25T05:25:37;17.20;99.90
7016;DHT22;3548;48.402;9.990;2022-08-25T05:28:03;17.20;99.90
7016;DHT22;3548;48.402;9.990;2022-08-25T05:30:28;17.30;99.90
7016;DHT22;3548;48.402;9.990;2022-08-25T05:32:54;17.40;99.90
7016;DHT22;3548;48.402;9.990;2022-08-25T05:35:20;17.50;99.90
7016;DHT22;3548;48.402;9.990;2022-08-25T05:37:46;17.60;99.90
7016;DHT22;3548;48.402;9.990;2022-08-25T05:40:12;17.70;99.90
7016;DHT22;3548;48.402;9.990;2022-08-25T05:42:38;17.80;99.90
7016;DHT22;3548;48.402;9.990;2022-08-25T05:45:04;17.90;99.90
7016;DHT22;3548;48.402;9.990;2022-08-25T05:47:31;18.00;99.90
7016;DHT22;3548;48.402;9.990;2022-08-25T05:49:56;18.10;99.90
7016;DHT22;3548;48.402;9.990;2022-08-25T05:52:22;18.20;99.90
7016;DHT22;3548;48.402;9.990;2022-08-25T05:54:48;18.30;99.90
7016;DHT22;3548;48.402;9.990;2022-08-25T05:57:14;18.40;99.90
7016;DHT22;3548;48.402;9.990;2022-08-25T05:59:39;18.50;99.90
7016;DHT22;3548;48.402;9.990;2022-08-25T06:02:05;18.60;99.90
7016;DHT22;3548;48.402;9.990;2022-08-25T06:04:49;18.70;99.90
7016;DHT22;3548;48.402;9.990;2022-08-25T06:07:14;18.70;99.90
7016;DHT22;3548;48.402;9.990;2022-08-25T06:09:40;18.80;99.90
7016;DHT22;3548;48.402;9.990;2022-08-25T06:12:07;18.80;99.90
7016;DHT22;3548;48.402;9.990;2022-08-25T06:14:33;18.90;99.90
7016;DHT22;3548;48.402;9.990;2022-08-25T06:16:59;18.90;99.90
7016;DHT22;3548;48.402;9.990;2022-08-25T06:19:25;18.90;99.90
7016;DHT22;3548;48.402;9.990;2022-08-25T06:21:55;19.00;99.90
7016;DHT22;3548;48.402;9.990;2022-08-25T06:24:22;19.00;99.90
7016;DHT22;3548;48.402;9.990;2022-08-25T06:26:47;19.10;99.90
7016;DHT22;3548;48.402;9.990;2022-08-25T06:29:13;19.20;99.90
7016;DHT22;3548;48.402;9.990;2022-08-25T06:31:39;19.20;99.90
7016;DHT22;3548;48.402;9.990;2022-08-25T06:34:04;19.20;99.90
7016;DHT22;3548;48.402;9.990;2022-08-25T06:36:30;19.30;99.90
7016;DHT22;3548;48.402;9.990;2022-08-25T06:38:56;19.40;99.90
7016;DHT22;3548;48.402;9.990;2022-08-25T06:41:21;19.50;99.90
7016;DHT22;3548;48.402;9.990;2022-08-25T06:43:47;19.50;99.90
7016;DHT22;3548;48.402;9.990;2022-08-25T06:46:24;19.50;99.90
7016;DHT22;3548;48.402;9.990;2022-08-25T06:48:51;19.50;99.90
7016;DHT22;3548;48.402;9.990;2022-08-25T06:51:18;19.60;99.90
7016;DHT22;3548;48.402;9.990;2022-08-25T06:53:46;19.60;99.90
7016;DHT22;3548;48.402;9.990;2022-08-25T06:56:14;19.50;99.90
7016;DHT22;3548;48.402;9.990;2022-08-25T06:58:41;19.50;99.90
7016;DHT22;3548;48.402;9.990;2022-08-25T07:01:12;19.50;99.90
7016;DHT22;3548;48.402;9.990;2022-08-25T07:03:38;19.50;99.90
7016;DHT22;3548;48.402;9.990;2022-08-25T07:06:04;19.50;99.90
7016;DHT22;3548;48.402;9.990;2022-08-25T07:08:30;19.60;99.90
7016;DHT22;3548;48.402;9.990;2022-08-25T07:10:56;19.70;99.90
7016;DHT22;3548;48.402;9.990;2022-08-25T07:13:22;19.80;99.90
7016;DHT22;3548;48.402;9.990;2022-08-25T07:15:52;19.90;99.90
7016;DHT22;3548;48.402;9.990;2022-08-25T07:18:18;20.10;99.90
7016;DHT22;3548;48.402;9.990;2022-08-25T07:20:44;20.20;99.90
7016;DHT22;3548;48.402;9.990;2022-08-25T07:23:10;20.30;99.90
7016;DHT22;3548;48.402;9.990;2022-08-25T07:25:35;20.50;99.90
7016;DHT22;3548;48.402;9.990;2022-08-25T07:28:01;20.50;99.90
7016;DHT22;3548;48.402;9.990;2022-08-25T07:30:27;20.50;99.90
7016;DHT22;3548;48.402;9.990;2022-08-25T07:32:53;20.60;99.90
7016;DHT22;3548;48.402;9.990;2022-08-25T07:35:18;20.70;99.90
7016;DHT22;3548;48.402;9.990;2022-08-25T07:37:50;20.80;99.90
7016;DHT22;3548;48.402;9.990;2022-08-25T07:40:21;20.90;99.90
7016;DHT22;3548;48.402;9.990;2022-08-25T07:42:52;20.90;99.90
7016;DHT22;3548;48.402;9.990;2022-08-25T07:45:19;21.00;99.90
7016;DHT22;3548;48.402;9.990;2022-08-25T07:47:45;21.10;99.90
7016;DHT22;3548;48.402;9.990;2022-08-25T07:50:12;21.20;99.90
7016;DHT22;3548;48.402;9.990;2022-08-25T07:52:39;21.20;99.90
7016;DHT22;3548;48.402;9.990;2022-08-25T07:55:05;21.30;99.90
7016;DHT22;3548;48.402;9.990;2022-08-25T07:57:32;21.40;99.90
7016;DHT22;3548;48.402;9.990;2022-08-25T07:59:58;21.40;99.90
7016;DHT22;3548;48.402;9.990;2022-08-25T08:02:24;21.40;99.90
7016;DHT22;3548;48.402;9.990;2022-08-25T08:04:51;21.60;99.90
7016;DHT22;3548;48.402;9.990;2022-08-25T08:07:23;21.70;99.90
7016;DHT22;3548;48.402;9.990;2022-08-25T08:09:50;21.70;99.90
7016;DHT22;3548;48.402;9.990;2022-08-25T08:12:16;21.70;99.90
7016;DHT22;3548;48.402;9.990;2022-08-25T08:14:42;21.80;99.90
7016;DHT22;3548;48.402;9.990;2022-08-25T08:17:09;22.00;99.90
7016;DHT22;3548;48.402;9.990;2022-08-25T08:19:35;22.10;99.90
7016;DHT22;3548;48.402;9.990;2022-08-25T08:22:03;22.10;99.90
7016;DHT22;3548;48.402;9.990;2022-08-25T08:24:30;22.10;99.90
7016;DHT22;3548;48.402;9.990;2022-08-25T08:26:56;22.00;99.90
7016;DHT22;3548;48.402;9.990;2022-08-25T08:29:22;22.10;99.90
7016;DHT22;3548;48.402;9.990;2022-08-25T08:31:48;22.30;99.90
7016;DHT22;3548;48.402;9.990;2022-08-25T08:34:14;22.50;99.90
7016;DHT22;3548;48.402;9.990;2022-08-25T08:36:39;22.60;99.90
7016;DHT22;3548;48.402;9.990;2022-08-25T08:39:05;22.70;99.90
7016;DHT22;3548;48.402;9.990;2022-08-25T08:50:01;22.30;99.90
7016;DHT22;3548;48.402;9.990;2022-08-25T08:52:51;22.40;99.90
7016;DHT22;3548;48.402;9.990;2022-08-25T08:55:46;22.60;99.90
7016;DHT22;3548;48.402;9.990;2022-08-25T08:59:02;22.80;99.90
7016;DHT22;3548;48.402;9.990;2022-08-25T09:01:09;23.00;99.90
7016;DHT22;3548;48.402;9.990;2022-08-25T09:03:39;23.10;99.90
7016;DHT22;3548;48.402;9.990;2022-08-25T09:06:11;23.20;99.90
7016;DHT22;3548;48.402;9.990;2022-08-25T09:08:38;23.40;99.90
7016;DHT22;3548;48.402;9.990;2022-08-25T09:16:56;23.80;99.90
7016;DHT22;3548;48.402;9.990;2022-08-25T09:19:34;23.90;99.90
7016;DHT22;3548;48.402;9.990;2022-08-25T09:22:17;24.00;99.90
7016;DHT22;3548;48.402;9.990;2022-08-25T09:27:56;24.20;99.90
7016;DHT22;3548;48.402;9.990;2022-08-25T09:30:26;24.30;99.90
7016;DHT22;3548;48.402;9.990;2022-08-25T09:32:56;24.40;99.90
7016;DHT22;3548;48.402;9.990;2022-08-25T09:35:31;24.50;99.90
7016;DHT22;3548;48.402;9.990;2022-08-25T09:38:00;24.60;99.90
7016;DHT22;3548;48.402;9.990;2022-08-25T09:40:29;24.50;99.90
7016;DHT22;3548;48.402;9.990;2022-08-25T09:42:58;24.30;99.90
7016;DHT22;3548;48.402;9.990;2022-08-25T09:45:42;24.30;99.90
7016;DHT22;3548;48.402;9.990;2022-08-25T09:48:24;24.40;99.90
7016;DHT22;3548;48.402;9.990;2022-08-25T09:50:52;24.60;99.90
7016;DHT22;3548;48.402;9.990;2022-08-25T09:53:19;24.80;99.90
7016;DHT22;3548;48.402;9.990;2022-08-25T09:55:50;25.00;99.90
7016;DHT22;3548;48.402;9.990;2022-08-25T09:58:21;25.10;99.90
7016;DHT22;3548;48.402;9.990;2022-08-25T10:03:48;25.10;99.90
7016;DHT22;3548;48.402;9.990;2022-08-25T10:06:17;25.10;99.90
7016;DHT22;3548;48.402;9.990;2022-08-25T10:11:14;25.30;99.90
7016;DHT22;3548;48.402;9.990;2022-08-25T10:14:02;25.30;99.90
7016;DHT22;3548;48.402;9.990;2022-08-25T10:16:30;25.50;99.90
7016;DHT22;3548;48.402;9.990;2022-08-25T10:21:30;25.50;99.90
7016;DHT22;3548;48.402;9.990;2022-08-25T10:23:56;25.50;99.90
7016;DHT22;3548;48.402;9.990;2022-08-25T10:26:44;25.50;99.90
7016;DHT22;3548;48.402;9.990;2022-08-25T10:32:08;25.70;99.90
7016;DHT22;3548;48.402;9.990;2022-08-25T10:37:08;25.90;99.90
7016;DHT22;3548;48.402;9.990;2022-08-25T10:43:06;26.20;99.90
7016;DHT22;3548;48.402;9.990;2022-08-25T10:45:44;26.40;99.90
7016;DHT22;3548;48.402;9.990;2022-08-25T10:51:08;26.60;99.90
7016;DHT22;3548;48.402;9.990;2022-08-25T10:56:40;26.40;99.90
7016;DHT22;3548;48.402;9.990;2022-08-25T10:59:29;26.20;99.90
7016;DHT22;3548;48.402;9.990;2022-08-25T11:04:52;26.40;99.50
7016;DHT22;3548;48.402;9.990;2022-08-25T11:07:25;26.40;99.70
7016;DHT22;3548;48.402;9.990;2022-08-25T11:09:56;26.60;99.50
7016;DHT22;3548;48.402;9.990;2022-08-25T11:12:33;26.60;99.40
7016;DHT22;3548;48.402;9.990;2022-08-25T11:18:13;26.60;99.20
7016;DHT22;3548;48.402;9.990;2022-08-25T11:20:43;26.60;99.40
7016;DHT22;3548;48.402;9.990;2022-08-25T11:23:27;26.80;99.00
7016;DHT22;3548;48.402;9.990;2022-08-25T11:26:03;27.00;98.40
7016;DHT22;3548;48.402;9.990;2022-08-25T11:28:46;27.20;98.50
7016;DHT22;3548;48.402;9.990;2022-08-25T11:31:14;27.30;98.10
7016;DHT22;3548;48.402;9.990;2022-08-25T11:33:42;27.30;98.40
7016;DHT22;3548;48.402;9.990;2022-08-25T11:36:29;27.40;97.40
7016;DHT22;3548;48.402;9.990;2022-08-25T11:38:58;27.50;96.80
7016;DHT22;3548;48.402;9.990;2022-08-25T11:44:48;27.80;95.50
7016;DHT22;3548;48.402;9.990;2022-08-25T11:47:36;27.90;95.10
7016;DHT22;3548;48.402;9.990;2022-08-25T11:52:53;27.90;96.40
7016;DHT22;3548;48.402;9.990;2022-08-25T11:58:46;28.00;95.10
7016;DHT22;3548;48.402;9.990;2022-08-25T12:04:30;28.10;94.80
7016;DHT22;3548;48.402;9.990;2022-08-25T12:18:14;28.50;93.40
7016;DHT22;3548;48.402;9.990;2022-08-25T12:23:33;28.30;93.20
7016;DHT22;3548;48.402;9.990;2022-08-25T12:31:50;28.20;93.20
7016;DHT22;3548;48.402;9.990;2022-08-25T12:37:17;28.50;93.20
7016;DHT22;3548;48.402;9.990;2022-08-25T12:42:29;28.50;93.00
7016;DHT22;3548;48.402;9.990;2022-08-25T12:47:52;28.90;92.10
7016;DHT22;3548;48.402;9.990;2022-08-25T12:50:38;29.00;90.90
7016;DHT22;3548;48.402;9.990;2022-08-25T12:53:16;29.20;90.60
7016;DHT22;3548;48.402;9.990;2022-08-25T12:55:48;29.30;90.70
7016;DHT22;3548;48.402;9.990;2022-08-25T12:58:15;29.30;90.40
7016;DHT22;3548;48.402;9.990;2022-08-25T13:01:09;29.30;90.50
7016;DHT22;3548;48.402;9.990;2022-08-25T13:03:56;29.30;91.20
7016;DHT22;3548;48.402;9.990;2022-08-25T13:06:39;29.40;90.70
7016;DHT22;3548;48.402;9.990;2022-08-25T13:14:43;29.50;90.20
7016;DHT22;3548;48.402;9.990;2022-08-25T13:17:09;29.60;89.30
7016;DHT22;3548;48.402;9.990;2022-08-25T13:19:36;29.70;89.70
7016;DHT22;3548;48.402;9.990;2022-08-25T13:22:11;29.80;88.70
7016;DHT22;3548;48.402;9.990;2022-08-25T13:24:40;29.70;88.20
7016;DHT22;3548;48.402;9.990;2022-08-25T13:27:09;29.50;88.20
7016;DHT22;3548;48.402;9.990;2022-08-25T13:29:54;29.30;89.00
7016;DHT22;3548;48.402;9.990;2022-08-25T13:32:32;29.30;88.80
7016;DHT22;3548;48.402;9.990;2022-08-25T13:35:19;29.30;88.30
7016;DHT22;3548;48.402;9.990;2022-08-25T13:37:45;29.40;86.30
7016;DHT22;3548;48.402;9.990;2022-08-25T13:40:27;29.60;85.70
7016;DHT22;3548;48.402;9.990;2022-08-25T13:43:02;29.50;84.50
7016;DHT22;3548;48.402;9.990;2022-08-25T13:45:31;29.30;85.10
7016;DHT22;3548;48.402;9.990;2022-08-25T13:48:02;29.10;86.70
7016;DHT22;3548;48.402;9.990;2022-08-25T13:50:29;29.00;87.20
7016;DHT22;3548;48.402;9.990;2022-08-25T13:55:48;29.10;83.50
7016;DHT22;3548;48.402;9.990;2022-08-25T13:58:22;29.20;83.70
7016;DHT22;3548;48.402;9.990;2022-08-25T14:03:41;29.40;82.20
7016;DHT22;3548;48.402;9.990;2022-08-25T14:08:38;29.30;82.30
7016;DHT22;3548;48.402;9.990;2022-08-25T14:11:08;29.40;82.40
7016;DHT22;3548;48.402;9.990;2022-08-25T14:13:34;29.60;82.30
7016;DHT22;3548;48.402;9.990;2022-08-25T14:16:21;29.70;82.80
7016;DHT22;3548;48.402;9.990;2022-08-25T14:18:55;29.70;83.20
7016;DHT22;3548;48.402;9.990;2022-08-25T14:21:29;29.80;81.60
7016;DHT22;3548;48.402;9.990;2022-08-25T14:23:55;29.80;81.40
7016;DHT22;3548;48.402;9.990;2022-08-25T14:26:22;29.90;82.10
7016;DHT22;3548;48.402;9.990;2022-08-25T14:28:48;29.90;80.50
7016;DHT22;3548;48.402;9.990;2022-08-25T14:31:28;30.00;80.40
7016;DHT22;3548;48.402;9.990;2022-08-25T14:34:01;30.10;79.60
7016;DHT22;3548;48.402;9.990;2022-08-25T14:36:28;29.90;79.50
7016;DHT22;3548;48.402;9.990;2022-08-25T14:38:55;29.80;78.10
7016;DHT22;3548;48.402;9.990;2022-08-25T14:41:22;29.90;79.40
7016;DHT22;3548;48.402;9.990;2022-08-25T14:43:48;29.90;78.20
7016;DHT22;3548;48.402;9.990;2022-08-25T14:46:22;29.90;78.30
7016;DHT22;3548;48.402;9.990;2022-08-25T14:48:52;30.00;78.10
7016;DHT22;3548;48.402;9.990;2022-08-25T14:51:20;30.10;76.30
7016;DHT22;3548;48.402;9.990;2022-08-25T14:53:46;30.40;75.00
7016;DHT22;3548;48.402;9.990;2022-08-25T14:56:12;30.50;74.50
7016;DHT22;3548;48.402;9.990;2022-08-25T14:58:38;30.60;74.20
7016;DHT22;3548;48.402;9.990;2022-08-25T15:01:05;30.70;73.30
7016;DHT22;3548;48.402;9.990;2022-08-25T15:03:35;30.70;73.80
7016;DHT22;3548;48.402;9.990;2022-08-25T15:06:01;30.80;74.30
7016;DHT22;3548;48.402;9.990;2022-08-25T15:08:27;30.80;73.70
7016;DHT22;3548;48.402;9.990;2022-08-25T15:11:11;30.80;72.40
7016;DHT22;3548;48.402;9.990;2022-08-25T15:13:38;30.70;73.30
7016;DHT22;3548;48.402;9.990;2022-08-25T15:16:03;30.60;71.60
7016;DHT22;3548;48.402;9.990;2022-08-25T15:18:30;30.60;71.50
7016;DHT22;3548;48.402;9.990;2022-08-25T15:20:55;30.60;72.10
7016;DHT22;3548;48.402;9.990;2022-08-25T15:23:21;30.60;72.00
7016;DHT22;3548;48.402;9.990;2022-08-25T15:25:48;30.60;72.20
7016;DHT22;3548;48.402;9.990;2022-08-25T15:28:15;30.50;70.80
7016;DHT22;3548;48.402;9.990;2022-08-25T15:30:41;30.50;71.10
7016;DHT22;3548;48.402;9.990;2022-08-25T15:33:06;30.50;70.30
7016;DHT22;3548;48.402;9.990;2022-08-25T15:35:32;30.60;70.40
7016;DHT22;3548;48.402;9.990;2022-08-25T15:37:59;30.60;70.20
7016;DHT22;3548;48.402;9.990;2022-08-25T15:40:26;30.70;70.70
7016;DHT22;3548;48.402;9.990;2022-08-25T15:42:51;30.60;70.60
7016;DHT22;3548;48.402;9.990;2022-08-25T15:45:17;30.50;71.50
7016;DHT22;3548;48.402;9.990;2022-08-25T15:47:43;30.40;71.90
7016;DHT22;3548;48.402;9.990;2022-08-25T15:50:15;30.50;72.50
7016;DHT22;3548;48.402;9.990;2022-08-25T15:52:41;30.30;72.70
7016;DHT22;3548;48.402;9.990;2022-08-25T15:55:08;30.20;72.40
7016;DHT22;3548;48.402;9.990;2022-08-25T15:57:35;30.20;72.40
7016;DHT22;3548;48.402;9.990;2022-08-25T16:00:02;30.20;72.70
7016;DHT22;3548;48.402;9.990;2022-08-25T16:02:28;30.30;72.60
7016;DHT22;3548;48.402;9.990;2022-08-25T16:04:54;30.30;72.00
7016;DHT22;3548;48.402;9.990;2022-08-25T16:07:20;30.20;71.90
7016;DHT22;3548;48.402;9.990;2022-08-25T16:09:45;30.20;72.40
7016;DHT22;3548;48.402;9.990;2022-08-25T16:12:11;30.10;72.70
7016;DHT22;3548;48.402;9.990;2022-08-25T16:14:37;30.10;72.00
7016;DHT22;3548;48.402;9.990;2022-08-25T16:17:04;30.00;71.40
7016;DHT22;3548;48.402;9.990;2022-08-25T16:19:30;29.90;71.20
7016;DHT22;3548;48.402;9.990;2022-08-25T16:21:57;29.70;71.40
7016;DHT22;3548;48.402;9.990;2022-08-25T16:24:23;29.60;71.40
7016;DHT22;3548;48.402;9.990;2022-08-25T16:26:49;29.50;71.40
7016;DHT22;3548;48.402;9.990;2022-08-25T16:29:16;29.50;71.50
7016;DHT22;3548;48.402;9.990;2022-08-25T16:31:42;29.40;70.90
7016;DHT22;3548;48.402;9.990;2022-08-25T16:34:07;29.20;71.80
7016;DHT22;3548;48.402;9.990;2022-08-25T16:36:33;29.20;72.20
7016;DHT22;3548;48.402;9.990;2022-08-25T16:39:00;29.20;72.20
7016;DHT22;3548;48.402;9.990;2022-08-25T16:41:29;29.20;72.10
7016;DHT22;3548;48.402;9.990;2022-08-25T16:44:00;29.20;72.50
7016;DHT22;3548;48.402;9.990;2022-08-25T16:46:25;29.10;72.20
7016;DHT22;3548;48.402;9.990;2022-08-25T16:48:51;29.10;72.60
7016;DHT22;3548;48.402;9.990;2022-08-25T16:51:19;29.10;72.40
7016;DHT22;3548;48.402;9.990;2022-08-25T16:53:45;29.10;72.50
7016;DHT22;3548;48.402;9.990;2022-08-25T16:56:31;29.10;72.60
7016;DHT22;3548;48.402;9.990;2022-08-25T16:58:59;29.00;72.70
7016;DHT22;3548;48.402;9.990;2022-08-25T17:01:27;29.00;72.80
7016;DHT22;3548;48.402;9.990;2022-08-25T17:03:54;29.00;73.30
7016;DHT22;3548;48.402;9.990;2022-08-25T17:06:22;29.00;73.40
7016;DHT22;3548;48.402;9.990;2022-08-25T17:08:48;29.00;73.30
7016;DHT22;3548;48.402;9.990;2022-08-25T17:11:21;29.00;72.40
7016;DHT22;3548;48.402;9.990;2022-08-25T17:13:50;29.00;72.50
7016;DHT22;3548;48.402;9.990;2022-08-25T17:16:18;28.90;71.60
7016;DHT22;3548;48.402;9.990;2022-08-25T17:18:44;29.00;71.60
7016;DHT22;3548;48.402;9.990;2022-08-25T17:21:11;29.00;71.60
7016;DHT22;3548;48.402;9.990;2022-08-25T17:23:39;29.00;72.10
7016;DHT22;3548;48.402;9.990;2022-08-25T17:26:05;29.00;72.30
7016;DHT22;3548;48.402;9.990;2022-08-25T17:28:31;28.90;73.20
7016;DHT22;3548;48.402;9.990;2022-08-25T17:30:57;28.80;73.60
7016;DHT22;3548;48.402;9.990;2022-08-25T17:33:23;28.70;73.60
7016;DHT22;3548;48.402;9.990;2022-08-25T17:35:51;28.60;73.70
7016;DHT22;3548;48.402;9.990;2022-08-25T17:38:19;28.60;73.90
7016;DHT22;3548;48.402;9.990;2022-08-25T17:40:47;28.50;74.10
7016;DHT22;3548;48.402;9.990;2022-08-25T17:43:13;28.50;73.60
7016;DHT22;3548;48.402;9.990;2022-08-25T17:45:39;28.50;73.30
7016;DHT22;3548;48.402;9.990;2022-08-25T17:48:06;28.40;73.20
7016;DHT22;3548;48.402;9.990;2022-08-25T17:50:33;28.30;73.40
7016;DHT22;3548;48.402;9.990;2022-08-25T17:53:00;28.20;73.70